sensor_id;sensor_type;location;lat;lon;timestamp;temperature;humidity
15546;DHT22;7874;48.870;11.074;2023-05-29T03:59:18;11.50;99.30
15546;DHT22;7874;48.870;11.074;2023-05-29T05:02:34;13.30;97.80
15546;DHT22;7874;48.870;11.074;2023-05-29T05:05:02;13.50;97.70
15546;DHT22;7874;48.870;11.074;2023-05-29T05:07:29;13.70;97.40
15546;DHT22;7874;48.870;11.074;2023-05-29T05:09:56;13.80;97.10
15546;DHT22;7874;48.870;11.074;2023-05-29T05:12:23;13.90;96.90
15546;DHT22;7874;48.870;11.074;2023-05-29T05:14:50;14.10;97.00
15546;DHT22;7874;48.870;11.074;2023-05-29T05:17:17;14.30;96.70
15546;DHT22;7874;48.870;11.074;2023-05-29T05:19:51;14.40;96.30
15546;DHT22;7874;48.870;11.074;2023-05-29T05:22:19;14.50;96.30
15546;DHT22;7874;48.870;11.074;2023-05-29T05:24:47;14.80;96.00
15546;DHT22;7874;48.870;11.074;2023-05-29T05:40:36;15.50;95.20
15546;DHT22;7874;48.870;11.074;2023-05-29T05:43:16;15.60;95.00
15546;DHT22;7874;48.870;11.074;2023-05-29T05:46:03;15.70;94.80
15546;DHT22;7874;48.870;11.074;2023-05-29T05:48:30;15.80;94.60
15546;DHT22;7874;48.870;11.074;2023-05-29T05:50:57;16.20;94.40
15546;DHT22;7874;48.870;11.074;2023-05-29T05:53:25;16.60;94.20
15546;DHT22;7874;48.870;11.074;2023-05-29T05:56:16;16.80;94.00
15546;DHT22;7874;48.870;11.074;2023-05-29T05:59:10;16.90;93.90
15546;DHT22;7874;48.870;11.074;2023-05-29T06:02:18;17.10;93.80
15546;DHT22;7874;48.870;11.074;2023-05-29T06:05:11;17.20;93.50
15546;DHT22;7874;48.870;11.074;2023-05-29T06:08:00;17.40;93.30
15546;DHT22;7874;48.870;11.074;2023-05-29T06:10:39;17.70;93.60
15546;DHT22;7874;48.870;11.074;2023-05-29T06:13:09;17.90;93.10
15546;DHT22;7874;48.870;11.074;2023-05-29T06:15:36;18.10;93.10
15546;DHT22;7874;48.870;11.074;2023-05-29T06:18:10;18.30;93.10
15546;DHT22;7874;48.870;11.074;2023-05-29T06:20:39;18.60;92.80
15546;DHT22;7874;48.870;11.074;2023-05-29T06:23:07;18.70;92.50
15546;DHT22;7874;48.870;11.074;2023-05-29T06:25:35;19.00;92.80
15546;DHT22;7874;48.870;11.074;2023-05-29T07:05:28;21.90;77.80
15546;DHT22;7874;48.870;11.074;2023-05-29T07:07:54;22.10;79.50
15546;DHT22;7874;48.870;11.074;2023-05-29T07:10:21;22.40;80.20
15546;DHT22;7874;48.870;11.074;2023-05-29T07:12:48;22.60;78.30
15546;DHT22;7874;48.870;11.074;2023-05-29T07:16:42;22.90;77.70
15546;DHT22;7874;48.870;11.074;2023-05-29T07:19:08;22.90;79.00
15546;DHT22;7874;48.870;11.074;2023-05-29T07:21:39;22.90;76.70
15546;DHT22;7874;48.870;11.074;2023-05-29T07:24:06;22.90;77.00
15546;DHT22;7874;48.870;11.074;2023-05-29T07:26:33;22.80;77.20
15546;DHT22;7874;48.870;11.074;2023-05-29T07:29:00;23.20;77.50
15546;DHT22;7874;48.870;11.074;2023-05-29T07:31:26;23.20;74.80
15546;DHT22;7874;48.870;11.074;2023-05-29T07:33:55;23.20;74.80
15546;DHT22;7874;48.870;11.074;2023-05-29T07:36:22;23.40;77.10
15546;DHT22;7874;48.870;11.074;2023-05-29T07:38:48;23.50;75.90
15546;DHT22;7874;48.870;11.074;2023-05-29T07:41:16;23.60;72.90
15546;DHT22;7874;48.870;11.074;2023-05-29T07:43:43;23.60;74.20
15546;DHT22;7874;48.870;11.074;2023-05-29T07:46:10;24.00;73.50
15546;DHT22;7874;48.870;11.074;2023-05-29T07:48:37;23.70;71.50
15546;DHT22;7874;48.870;11.074;2023-05-29T07:51:05;23.60;72.50
15546;DHT22;7874;48.870;11.074;2023-05-29T07:53:35;23.90;73.20
15546;DHT22;7874;48.870;11.074;2023-05-29T07:56:02;24.10;72.20
15546;DHT22;7874;48.870;11.074;2023-05-29T07:58:29;24.10;70.90
15546;DHT22;7874;48.870;11.074;2023-05-29T08:00:56;24.40;71.30
15546;DHT22;7874;48.870;11.074;2023-05-29T08:03:23;24.60;69.80
15546;DHT22;7874;48.870;11.074;2023-05-29T08:05:50;24.70;71.70
15546;DHT22;7874;48.870;11.074;2023-05-29T08:08:18;24.70;69.10
15546;DHT22;7874;48.870;11.074;2023-05-29T08:10:45;24.80;69.10
15546;DHT22;7874;48.870;11.074;2023-05-29T08:13:12;24.60;69.60
15546;DHT22;7874;48.870;11.074;2023-05-29T08:15:39;24.80;67.50
15546;DHT22;7874;48.870;11.074;2023-05-29T08:18:06;25.00;69.60
15546;DHT22;7874;48.870;11.074;2023-05-29T08:20:33;24.80;69.30
15546;DHT22;7874;48.870;11.074;2023-05-29T08:23:00;24.60;66.50
15546;DHT22;7874;48.870;11.074;2023-05-29T08:25:28;24.50;68.20
15546;DHT22;7874;48.870;11.074;2023-05-29T08:27:55;23.90;67.50
15546;DHT22;7874;48.870;11.074;2023-05-29T08:30:22;23.90;68.00
15546;DHT22;7874;48.870;11.074;2023-05-29T08:32:49;23.30;68.00
15546;DHT22;7874;48.870;11.074;2023-05-29T08:35:16;23.60;69.00
15546;DHT22;7874;48.870;11.074;2023-05-29T08:37:43;24.00;68.40
15546;DHT22;7874;48.870;11.074;2023-05-29T08:40:10;23.70;68.70
15546;DHT22;7874;48.870;11.074;2023-05-29T08:42:43;23.60;67.20
15546;DHT22;7874;48.870;11.074;2023-05-29T08:45:14;24.10;66.10
15546;DHT22;7874;48.870;11.074;2023-05-29T08:47:41;24.20;65.70
15546;DHT22;7874;48.870;11.074;2023-05-29T08:50:08;24.00;66.90
15546;DHT22;7874;48.870;11.074;2023-05-29T08:52:36;24.70;66.50
15546;DHT22;7874;48.870;11.074;2023-05-29T08:55:05;24.90;64.90
15546;DHT22;7874;48.870;11.074;2023-05-29T08:57:32;25.40;63.10
15546;DHT22;7874;48.870;11.074;2023-05-29T09:00:03;26.00;65.20
15546;DHT22;7874;48.870;11.074;2023-05-29T09:02:35;27.20;63.50
15546;DHT22;7874;48.870;11.074;2023-05-29T09:05:02;27.60;64.30
15546;DHT22;7874;48.870;11.074;2023-05-29T09:07:30;27.30;63.30
15546;DHT22;7874;48.870;11.074;2023-05-29T09:09:57;27.20;61.00
15546;DHT22;7874;48.870;11.074;2023-05-29T09:12:24;27.80;61.20
15546;DHT22;7874;48.870;11.074;2023-05-29T09:14:51;28.40;61.80
15546;DHT22;7874;48.870;11.074;2023-05-29T09:17:20;29.10;60.80
15546;DHT22;7874;48.870;11.074;2023-05-29T09:19:48;28.30;61.90
15546;DHT22;7874;48.870;11.074;2023-05-29T09:22:15;28.00;60.90
15546;DHT22;7874;48.870;11.074;2023-05-29T09:24:43;28.80;60.90
15546;DHT22;7874;48.870;11.074;2023-05-29T09:27:12;29.10;59.80
15546;DHT22;7874;48.870;11.074;2023-05-29T09:29:39;29.30;58.70
15546;DHT22;7874;48.870;11.074;2023-05-29T09:32:07;29.70;59.20
15546;DHT22;7874;48.870;11.074;2023-05-29T09:34:36;29.40;60.30
15546;DHT22;7874;48.870;11.074;2023-05-29T09:37:04;29.50;59.70
15546;DHT22;7874;48.870;11.074;2023-05-29T09:39:35;30.00;59.40
15546;DHT22;7874;48.870;11.074;2023-05-29T09:42:10;30.60;59.80
15546;DHT22;7874;48.870;11.074;2023-05-29T09:44:37;29.90;58.20
15546;DHT22;7874;48.870;11.074;2023-05-29T09:47:04;30.10;59.50
15546;DHT22;7874;48.870;11.074;2023-05-29T09:49:32;30.60;59.70
15546;DHT22;7874;48.870;11.074;2023-05-29T09:52:00;31.10;58.90
15546;DHT22;7874;48.870;11.074;2023-05-29T09:54:28;30.20;57.60
15546;DHT22;7874;48.870;11.074;2023-05-29T09:56:56;29.40;58.60
15546;DHT22;7874;48.870;11.074;2023-05-29T09:59:24;29.90;59.40
15546;DHT22;7874;48.870;11.074;2023-05-29T10:02:00;30.30;58.50
15546;DHT22;7874;48.870;11.074;2023-05-29T10:05:26;30.70;58.10
15546;DHT22;7874;48.870;11.074;2023-05-29T10:07:54;30.70;56.80
15546;DHT22;7874;48.870;11.074;2023-05-29T10:10:23;31.10;57.30
15546;DHT22;7874;48.870;11.074;2023-05-29T10:12:53;31.70;56.80
15546;DHT22;7874;48.870;11.074;2023-05-29T10:15:24;31.60;56.50
15546;DHT22;7874;48.870;11.074;2023-05-29T10:17:59;31.30;55.60
15546;DHT22;7874;48.870;11.074;2023-05-29T10:20:31;30.70;55.70
15546;DHT22;7874;48.870;11.074;2023-05-29T10:23:00;31.00;57.60
15546;DHT22;7874;48.870;11.074;2023-05-29T10:25:30;31.60;55.10
15546;DHT22;7874;48.870;11.074;2023-05-29T10:27:58;32.00;55.70
15546;DHT22;7874;48.870;11.074;2023-05-29T10:30:30;31.80;57.60
15546;DHT22;7874;48.870;11.074;2023-05-29T10:33:26;32.30;54.90
15546;DHT22;7874;48.870;11.074;2023-05-29T10:36:03;32.30;57.10
15546;DHT22;7874;48.870;11.074;2023-05-29T10:38:32;32.40;54.60
15546;DHT22;7874;48.870;11.074;2023-05-29T10:41:28;31.90;54.70
15546;DHT22;7874;48.870;11.074;2023-05-29T10:43:55;32.10;53.90
15546;DHT22;7874;48.870;11.074;2023-05-29T10:47:01;32.20;57.00
15546;DHT22;7874;48.870;11.074;2023-05-29T10:49:29;32.50;53.30
15546;DHT22;7874;48.870;11.074;2023-05-29T10:51:58;32.30;53.30
15546;DHT22;7874;48.870;11.074;2023-05-29T10:54:26;32.70;53.70
15546;DHT22;7874;48.870;11.074;2023-05-29T10:56:55;33.10;54.40
15546;DHT22;7874;48.870;11.074;2023-05-29T10:59:23;32.90;53.40
15546;DHT22;7874;48.870;11.074;2023-05-29T11:01:53;33.60;53.40
15546;DHT22;7874;48.870;11.074;2023-05-29T11:04:38;33.50;52.40
15546;DHT22;7874;48.870;11.074;2023-05-29T11:07:34;33.60;51.40
15546;DHT22;7874;48.870;11.074;2023-05-29T11:10:13;33.70;51.90
15546;DHT22;7874;48.870;11.074;2023-05-29T11:12:58;34.20;52.00
15546;DHT22;7874;48.870;11.074;2023-05-29T11:15:25;32.40;50.70
15546;DHT22;7874;48.870;11.074;2023-05-29T11:17:52;33.10;50.50
15546;DHT22;7874;48.870;11.074;2023-05-29T11:20:28;32.90;50.40
15546;DHT22;7874;48.870;11.074;2023-05-29T11:23:04;32.70;49.30
15546;DHT22;7874;48.870;11.074;2023-05-29T11:25:35;32.80;50.00
15546;DHT22;7874;48.870;11.074;2023-05-29T11:28:03;33.20;49.20
15546;DHT22;7874;48.870;11.074;2023-05-29T11:30:41;33.50;49.30
15546;DHT22;7874;48.870;11.074;2023-05-29T11:33:09;33.90;48.80
15546;DHT22;7874;48.870;11.074;2023-05-29T11:35:41;33.80;47.70
15546;DHT22;7874;48.870;11.074;2023-05-29T11:38:10;33.40;48.70
15546;DHT22;7874;48.870;11.074;2023-05-29T11:40:37;33.30;48.40
15546;DHT22;7874;48.870;11.074;2023-05-29T11:43:04;33.80;48.10
15546;DHT22;7874;48.870;11.074;2023-05-29T11:45:32;33.20;48.60
15546;DHT22;7874;48.870;11.074;2023-05-29T11:48:01;33.30;49.10
15546;DHT22;7874;48.870;11.074;2023-05-29T11:50:30;33.30;48.10
15546;DHT22;7874;48.870;11.074;2023-05-29T11:52:58;32.90;46.60
15546;DHT22;7874;48.870;11.074;2023-05-29T11:55:27;32.80;50.40
15546;DHT22;7874;48.870;11.074;2023-05-29T11:57:58;33.00;47.90
15546;DHT22;7874;48.870;11.074;2023-05-29T12:00:26;33.30;48.30
15546;DHT22;7874;48.870;11.074;2023-05-29T12:02:53;33.30;49.00
15546;DHT22;7874;48.870;11.074;2023-05-29T12:05:20;34.10;48.40
15546;DHT22;7874;48.870;11.074;2023-05-29T12:07:51;34.30;49.80
15546;DHT22;7874;48.870;11.074;2023-05-29T12:10:19;34.30;50.60
15546;DHT22;7874;48.870;11.074;2023-05-29T12:12:53;34.00;48.30
15546;DHT22;7874;48.870;11.074;2023-05-29T12:15:21;32.50;49.00
15546;DHT22;7874;48.870;11.074;2023-05-29T12:17:50;33.30;48.80
15546;DHT22;7874;48.870;11.074;2023-05-29T12:20:23;33.50;48.70
15546;DHT22;7874;48.870;11.074;2023-05-29T12:22:52;34.00;49.70
15546;DHT22;7874;48.870;11.074;2023-05-29T12:25:20;33.80;47.80
15546;DHT22;7874;48.870;11.074;2023-05-29T12:27:48;33.80;48.80
15546;DHT22;7874;48.870;11.074;2023-05-29T12:30:20;34.30;47.70
15546;DHT22;7874;48.870;11.074;2023-05-29T12:32:48;34.20;47.60
15546;DHT22;7874;48.870;11.074;2023-05-29T12:35:20;34.30;48.50
15546;DHT22;7874;48.870;11.074;2023-05-29T12:37:49;33.20;47.70
15546;DHT22;7874;48.870;11.074;2023-05-29T12:40:21;33.60;48.90
15546;DHT22;7874;48.870;11.074;2023-05-29T12:42:52;33.90;48.30
15546;DHT22;7874;48.870;11.074;2023-05-29T12:45:24;34.10;49.30
15546;DHT22;7874;48.870;11.074;2023-05-29T12:47:53;33.90;48.80
15546;DHT22;7874;48.870;11.074;2023-05-29T12:50:25;32.80;50.30
15546;DHT22;7874;48.870;11.074;2023-05-29T12:54:11;33.20;48.60
15546;DHT22;7874;48.870;11.074;2023-05-29T12:56:38;32.80;48.70
15546;DHT22;7874;48.870;11.074;2023-05-29T12:59:06;33.20;47.60
15546;DHT22;7874;48.870;11.074;2023-05-29T13:01:33;33.70;48.00
15546;DHT22;7874;48.870;11.074;2023-05-29T13:04:00;33.70;48.60
15546;DHT22;7874;48.870;11.074;2023-05-29T13:06:27;33.50;48.50
15546;DHT22;7874;48.870;11.074;2023-05-29T13:08:55;33.90;48.80
15546;DHT22;7874;48.870;11.074;2023-05-29T13:11:23;33.90;48.50
15546;DHT22;7874;48.870;11.074;2023-05-29T13:13:52;33.90;48.80
15546;DHT22;7874;48.870;11.074;2023-05-29T13:16:19;33.80;49.10
15546;DHT22;7874;48.870;11.074;2023-05-29T13:18:46;33.30;48.10
15546;DHT22;7874;48.870;11.074;2023-05-29T13:21:13;31.40;50.80
15546;DHT22;7874;48.870;11.074;2023-05-29T13:23:40;31.50;49.20
15546;DHT22;7874;48.870;11.074;2023-05-29T13:26:06;31.90;49.10
15546;DHT22;7874;48.870;11.074;2023-05-29T13:28:35;31.40;48.70
15546;DHT22;7874;48.870;11.074;2023-05-29T13:31:02;31.20;49.30
15546;DHT22;7874;48.870;11.074;2023-05-29T13:33:29;31.60;48.70
15546;DHT22;7874;48.870;11.074;2023-05-29T13:35:56;31.90;48.10
15546;DHT22;7874;48.870;11.074;2023-05-29T13:38:23;31.30;48.60
15546;DHT22;7874;48.870;11.074;2023-05-29T13:40:50;31.50;49.30
15546;DHT22;7874;48.870;11.074;2023-05-29T13:43:18;31.60;48.40
15546;DHT22;7874;48.870;11.074;2023-05-29T13:45:46;31.80;49.30
15546;DHT22;7874;48.870;11.074;2023-05-29T13:48:13;31.80;48.90
15546;DHT22;7874;48.870;11.074;2023-05-29T13:50:40;31.70;49.50
15546;DHT22;7874;48.870;11.074;2023-05-29T13:53:07;32.10;48.80
15546;DHT22;7874;48.870;11.074;2023-05-29T13:55:34;32.00;48.10
15546;DHT22;7874;48.870;11.074;2023-05-29T13:58:00;31.90;48.40
15546;DHT22;7874;48.870;11.074;2023-05-29T14:00:28;30.90;48.70
15546;DHT22;7874;48.870;11.074;2023-05-29T14:02:56;29.30;49.50
15546;DHT22;7874;48.870;11.074;2023-05-29T14:05:23;28.80;50.60
15546;DHT22;7874;48.870;11.074;2023-05-29T14:07:50;28.50;50.80
15546;DHT22;7874;48.870;11.074;2023-05-29T14:10:17;28.10;51.10
15546;DHT22;7874;48.870;11.074;2023-05-29T14:12:44;28.00;50.30
15546;DHT22;7874;48.870;11.074;2023-05-29T14:15:11;27.80;51.50
15546;DHT22;7874;48.870;11.074;2023-05-29T14:17:37;27.70;51.70
15546;DHT22;7874;48.870;11.074;2023-05-29T14:20:07;27.40;53.40
15546;DHT22;7874;48.870;11.074;2023-05-29T14:22:36;27.30;52.40
15546;DHT22;7874;48.870;11.074;2023-05-29T14:25:04;27.20;53.50
15546;DHT22;7874;48.870;11.074;2023-05-29T14:27:32;26.60;50.40
15546;DHT22;7874;48.870;11.074;2023-05-29T14:29:59;26.40;49.70
15546;DHT22;7874;48.870;11.074;2023-05-29T14:32:26;26.10;50.20
15546;DHT22;7874;48.870;11.074;2023-05-29T14:34:53;26.00;51.20
15546;DHT22;7874;48.870;11.074;2023-05-29T14:37:24;25.90;47.60
15546;DHT22;7874;48.870;11.074;2023-05-29T14:39:51;26.00;49.50
15546;DHT22;7874;48.870;11.074;2023-05-29T14:42:18;25.90;49.30
15546;DHT22;7874;48.870;11.074;2023-05-29T14:44:45;25.70;50.70
15546;DHT22;7874;48.870;11.074;2023-05-29T14:47:12;25.60;51.50
15546;DHT22;7874;48.870;11.074;2023-05-29T14:49:40;25.70;50.50
15546;DHT22;7874;48.870;11.074;2023-05-29T14:52:06;25.90;51.70
15546;DHT22;7874;48.870;11.074;2023-05-29T14:54:35;25.90;50.80
15546;DHT22;7874;48.870;11.074;2023-05-29T14:57:02;25.90;52.70
15546;DHT22;7874;48.870;11.074;2023-05-29T14:59:30;25.90;51.20
15546;DHT22;7874;48.870;11.074;2023-05-29T15:01:57;25.70;51.50
15546;DHT22;7874;48.870;11.074;2023-05-29T15:04:25;25.50;51.10
15546;DHT22;7874;48.870;11.074;2023-05-29T15:06:52;25.40;52.10
15546;DHT22;7874;48.870;11.074;2023-05-29T15:09:19;25.40;51.00
15546;DHT22;7874;48.870;11.074;2023-05-29T15:11:48;25.30;51.60
15546;DHT22;7874;48.870;11.074;2023-05-29T15:14:16;25.30;52.40
15546;DHT22;7874;48.870;11.074;2023-05-29T15:16:43;25.40;51.50
15546;DHT22;7874;48.870;11.074;2023-05-29T15:19:10;25.30;51.40
15546;DHT22;7874;48.870;11.074;2023-05-29T15:21:37;25.30;51.80
15546;DHT22;7874;48.870;11.074;2023-05-29T15:24:04;25.20;51.60
15546;DHT22;7874;48.870;11.074;2023-05-29T15:26:31;25.10;51.70
15546;DHT22;7874;48.870;11.074;2023-05-29T15:29:01;25.10;53.20
15546;DHT22;7874;48.870;11.074;2023-05-29T15:31:28;25.00;53.50
15546;DHT22;7874;48.870;11.074;2023-05-29T15:33:54;25.00;54.00
15546;DHT22;7874;48.870;11.074;2023-05-29T15:36:21;24.90;53.90
15546;DHT22;7874;48.870;11.074;2023-05-29T15:38:48;24.80;52.50
15546;DHT22;7874;48.870;11.074;2023-05-29T15:42:53;24.90;52.70
15546;DHT22;7874;48.870;11.074;2023-05-29T15:45:20;24.80;53.20
15546;DHT22;7874;48.870;11.074;2023-05-29T15:47:48;24.80;54.00
15546;DHT22;7874;48.870;11.074;2023-05-29T15:50:15;24.60;52.40
15546;DHT22;7874;48.870;11.074;2023-05-29T15:52:42;24.60;54.40
15546;DHT22;7874;48.870;11.074;2023-05-29T15:55:09;24.50;53.00
15546;DHT22;7874;48.870;11.074;2023-05-29T15:57:35;24.50;52.30
15546;DHT22;7874;48.870;11.074;2023-05-29T16:00:05;24.50;53.40
15546;DHT22;7874;48.870;11.074;2023-05-29T16:02:32;24.50;53.60
15546;DHT22;7874;48.870;11.074;2023-05-29T16:04:59;24.40;53.80
15546;DHT22;7874;48.870;11.074;2023-05-29T16:07:25;24.40;54.10
15546;DHT22;7874;48.870;11.074;2023-05-29T16:09:53;24.30;53.90
15546;DHT22;7874;48.870;11.074;2023-05-29T16:12:19;24.30;53.00
15546;DHT22;7874;48.870;11.074;2023-05-29T16:14:47;24.40;53.70
15546;DHT22;7874;48.870;11.074;2023-05-29T16:17:16;24.40;53.10
15546;DHT22;7874;48.870;11.074;2023-05-29T16:19:42;24.40;53.60
15546;DHT22;7874;48.870;11.074;2023-05-29T16:22:09;24.40;54.10
15546;DHT22;7874;48.870;11.074;2023-05-29T16:24:36;24.30;54.20
15546;DHT22;7874;48.870;11.074;2023-05-29T16:27:03;24.20;54.10
15546;DHT22;7874;48.870;11.074;2023-05-29T16:29:30;24.20;54.90
15546;DHT22;7874;48.870;11.074;2023-05-29T16:31:57;24.20;54.70
15546;DHT22;7874;48.870;11.074;2023-05-29T16:34:25;24.10;54.20
15546;DHT22;7874;48.870;11.074;2023-05-29T16:36:52;23.90;54.30
15546;DHT22;7874;48.870;11.074;2023-05-29T16:39:18;23.90;54.90
15546;DHT22;7874;48.870;11.074;2023-05-29T16:41:47;23.80;53.70
15546;DHT22;7874;48.870;11.074;2023-05-29T16:44:14;23.90;54.80
15546;DHT22;7874;48.870;11.074;2023-05-29T16:46:41;23.90;54.40
15546;DHT22;7874;48.870;11.074;2023-05-29T16:49:08;23.80;54.10
15546;DHT22;7874;48.870;11.074;2023-05-29T16:51:36;23.80;54.20
15546;DHT22;7874;48.870;11.074;2023-05-29T16:54:03;23.70;53.50
15546;DHT22;7874;48.870;11.074;2023-05-29T16:56:30;23.60;54.30
15546;DHT22;7874;48.870;11.074;2023-05-29T16:58:57;23.60;54.30
15546;DHT22;7874;48.870;11.074;2023-05-29T17:01:24;23.70;54.60
15546;DHT22;7874;48.870;11.074;2023-05-29T17:03:51;23.50;54.80
15546;DHT22;7874;48.870;11.074;2023-05-29T17:06:18;23.50;55.30
15546;DHT22;7874;48.870;11.074;2023-05-29T17:08:46;23.50;54.70
15546;DHT22;7874;48.870;11.074;2023-05-29T17:11:13;23.50;55.70
15546;DHT22;7874;48.870;11.074;2023-05-29T17:13:40;23.40;56.10
15546;DHT22;7874;48.870;11.074;2023-05-29T17:16:07;23.30;55.20
15546;DHT22;7874;48.870;11.074;2023-05-29T17:18:33;23.30;55.90
15546;DHT22;7874;48.870;11.074;2023-05-29T17:21:00;23.30;55.90
15546;DHT22;7874;48.870;11.074;2023-05-29T17:23:27;23.30;56.50
15546;DHT22;7874;48.870;11.074;2023-05-29T17:25:55;23.30;58.40
15546;DHT22;7874;48.870;11.074;2023-05-29T17:28:22;23.10;57.80
15546;DHT22;7874;48.870;11.074;2023-05-29T17:30:48;23.10;58.60
15546;DHT22;7874;48.870;11.074;2023-05-29T17:33:15;23.10;59.50
15546;DHT22;7874;48.870;11.074;2023-05-29T17:35:42;23.10;58.70
15546;DHT22;7874;48.870;11.074;2023-05-29T17:38:09;23.10;58.70
15546;DHT22;7874;48.870;11.074;2023-05-29T17:40:36;23.00;58.70
15546;DHT22;7874;48.870;11.074;2023-05-29T17:43:05;23.00;58.90
15546;DHT22;7874;48.870;11.074;2023-05-29T17:45:32;22.90;58.40
15546;DHT22;7874;48.870;11.074;2023-05-29T17:47:58;22.90;58.70
15546;DHT22;7874;48.870;11.074;2023-05-29T17:50:25;22.90;59.80
15546;DHT22;7874;48.870;11.074;2023-05-29T17:52:52;22.90;59.80
15546;DHT22;7874;48.870;11.074;2023-05-29T17:55:19;22.90;60.50
15546;DHT22;7874;48.870;11.074;2023-05-29T17:57:45;22.80;60.00
15546;DHT22;7874;48.870;11.074;2023-05-29T18:00:15;22.80;60.60
15546;DHT22;7874;48.870;11.074;2023-05-29T18:02:42;22.70;59.40
15546;DHT22;7874;48.870;11.074;2023-05-29T18:05:09;22.60;59.60
15546;DHT22;7874;48.870;11.074;2023-05-29T18:07:36;22.60;59.80
15546;DHT22;7874;48.870;11.074;2023-05-29T18:10:05;22.50;60.20
15546;DHT22;7874;48.870;11.074;2023-05-29T18:12:32;22.40;60.20
15546;DHT22;7874;48.870;11.074;2023-05-29T18:14:59;22.40;60.50
15546;DHT22;7874;48.870;11.074;2023-05-29T18:17:27;22.30;61.20
15546;DHT22;7874;48.870;11.074;2023-05-29T18:19:54;22.20;61.60
15546;DHT22;7874;48.870;11.074;2023-05-29T18:22:21;22.20;61.50
15546;DHT22;7874;48.870;11.074;2023-05-29T18:24:47;22.10;65.20
15546;DHT22;7874;48.870;11.074;2023-05-29T18:27:14;22.00;65.20
15546;DHT22;7874;48.870;11.074;2023-05-29T18:31:36;21.80;67.00
15546;DHT22;7874;48.870;11.074;2023-05-29T18:34:05;21.60;67.40
15546;DHT22;7874;48.870;11.074;2023-05-29T18:36:35;21.50;68.30
15546;DHT22;7874;48.870;11.074;2023-05-29T18:39:02;21.40;68.10
15546;DHT22;7874;48.870;11.074;2023-05-29T18:41:31;21.30;68.40
15546;DHT22;7874;48.870;11.074;2023-05-29T18:43:59;21.10;70.70
15546;DHT22;7874;48.870;11.074;2023-05-29T18:46:29;21.00;72.10
15546;DHT22;7874;48.870;11.074;2023-05-29T18:48:58;20.80;70.40
15546;DHT22;7874;48.870;11.074;2023-05-29T18:51:26;20.70;73.10
15546;DHT22;7874;48.870;11.074;2023-05-29T18:53:52;20.50;72.60
15546;DHT22;7874;48.870;11.074;2023-05-29T18:56:21;20.50;72.10
15546;DHT22;7874;48.870;11.074;2023-05-29T18:58:49;20.40;72.20
15546;DHT22;7874;48.870;11.074;2023-05-29T19:01:16;20.20;74.80
15546;DHT22;7874;48.870;11.074;2023-05-29T19:03:43;20.10;73.70
15546;DHT22;7874;48.870;11.074;2023-05-29T19:06:12;20.00;73.40
15546;DHT22;7874;48.870;11.074;2023-05-29T19:08:39;19.90;73.90
15546;DHT22;7874;48.870;11.074;2023-05-29T19:11:07;19.80;75.90
15546;DHT22;7874;48.870;11.074;2023-05-29T19:13:37;19.60;76.20
15546;DHT22;7874;48.870;11.074;2023-05-29T19:16:07;19.50;77.40
15546;DHT22;7874;48.870;11.074;2023-05-29T19:18:34;19.50;76.40
15546;DHT22;7874;48.870;11.074;2023-05-29T19:21:01;19.40;76.50
15546;DHT22;7874;48.870;11.074;2023-05-29T19:23:29;19.30;76.40
15546;DHT22;7874;48.870;11.074;2023-05-29T19:25:56;19.20;77.30
15546;DHT22;7874;48.870;11.074;2023-05-29T19:28:23;19.10;77.60
15546;DHT22;7874;48.870;11.074;2023-05-29T19:30:50;19.00;77.60
15546;DHT22;7874;48.870;11.074;2023-05-29T19:33:18;18.90;78.60
15546;DHT22;7874;48.870;11.074;2023-05-29T19:35:45;18.80;78.20
15546;DHT22;7874;48.870;11.074;2023-05-29T19:38:12;18.80;78.10
15546;DHT22;7874;48.870;11.074;2023-05-29T19:40:40;18.70;79.60
15546;DHT22;7874;48.870;11.074;2023-05-29T19:43:07;18.60;79.80
15546;DHT22;7874;48.870;11.074;2023-05-29T19:45:34;18.50;80.20
15546;DHT22;7874;48.870;11.074;2023-05-29T19:48:01;18.40;81.40
15546;DHT22;7874;48.870;11.074;2023-05-29T19:50:28;18.30;80.00
15546;DHT22;7874;48.870;11.074;2023-05-29T19:52:55;18.30;80.00
15546;DHT22;7874;48.870;11.074;2023-05-29T19:55:22;18.30;81.00
15546;DHT22;7874;48.870;11.074;2023-05-29T19:57:52;18.30;80.60
15546;DHT22;7874;48.870;11.074;2023-05-29T20:00:19;18.20;81.10
15546;DHT22;7874;48.870;11.074;2023-05-29T20:02:46;18.10;82.00
15546;DHT22;7874;48.870;11.074;2023-05-29T20:05:15;18.10;82.50
15546;DHT22;7874;48.870;11.074;2023-05-29T20:07:43;18.10;81.80
15546;DHT22;7874;48.870;11.074;2023-05-29T20:10:10;18.10;82.20
15546;DHT22;7874;48.870;11.074;2023-05-29T20:12:40;18.00;82.20
15546;DHT22;7874;48.870;11.074;2023-05-29T20:15:10;17.80;82.90
15546;DHT22;7874;48.870;11.074;2023-05-29T20:17:38;17.80;83.00
15546;DHT22;7874;48.870;11.074;2023-05-29T20:20:06;17.70;83.40
15546;DHT22;7874;48.870;11.074;2023-05-29T20:22:33;17.50;83.20
15546;DHT22;7874;48.870;11.074;2023-05-29T20:25:01;17.50;83.30
15546;DHT22;7874;48.870;11.074;2023-05-29T20:27:28;17.50;84.40
15546;DHT22;7874;48.870;11.074;2023-05-29T20:29:55;17.50;83.50
15546;DHT22;7874;48.870;11.074;2023-05-29T20:32:24;17.40;83.10
15546;DHT22;7874;48.870;11.074;2023-05-29T20:34:52;17.40;83.10
15546;DHT22;7874;48.870;11.074;2023-05-29T20:37:21;17.40;83.10
15546;DHT22;7874;48.870;11.074;2023-05-29T20:39:49;17.30;83.20
15546;DHT22;7874;48.870;11.074;2023-05-29T20:42:17;17.30;82.60
15546;DHT22;7874;48.870;11.074;2023-05-29T20:44:47;17.10;83.30
15546;DHT22;7874;48.870;11.074;2023-05-29T20:47:16;17.00;83.80
15546;DHT22;7874;48.870;11.074;2023-05-29T20:49:45;17.00;83.80
15546;DHT22;7874;48.870;11.074;2023-05-29T20:52:12;16.80;83.80
15546;DHT22;7874;48.870;11.074;2023-05-29T20:54:39;17.00;84.20
15546;DHT22;7874;48.870;11.074;2023-05-29T20:57:06;16.90;85.40
15546;DHT22;7874;48.870;11.074;2023-05-29T20:59:34;16.80;84.30
15546;DHT22;7874;48.870;11.074;2023-05-29T21:02:01;16.80;84.40
15546;DHT22;7874;48.870;11.074;2023-05-29T21:04:29;16.60;84.20
15546;DHT22;7874;48.870;11.074;2023-05-29T21:06:57;16.60;85.00
15546;DHT22;7874;48.870;11.074;2023-05-29T21:09:25;16.60;85.10
15546;DHT22;7874;48.870;11.074;2023-05-29T21:11:52;16.70;84.70
15546;DHT22;7874;48.870;11.074;2023-05-29T21:14:20;16.70;85.60
15546;DHT22;7874;48.870;11.074;2023-05-29T21:16:50;16.60;85.10
15546;DHT22;7874;48.870;11.074;2023-05-29T21:20:21;16.50;86.30
15546;DHT22;7874;48.870;11.074;2023-05-29T21:22:48;16.60;86.70
15546;DHT22;7874;48.870;11.074;2023-05-29T21:25:16;16.60;86.60
15546;DHT22;7874;48.870;11.074;2023-05-29T21:27:44;16.60;87.00
15546;DHT22;7874;48.870;11.074;2023-05-29T21:30:12;16.40;86.50
15546;DHT22;7874;48.870;11.074;2023-05-29T21:32:39;16.40;87.80
15546;DHT22;7874;48.870;11.074;2023-05-29T21:35:07;16.40;87.90
15546;DHT22;7874;48.870;11.074;2023-05-29T21:37:35;16.40;87.10